sensor_id;sensor_type;location;lat;lon;timestamp;temperature;humidity
8114;DHT22;4099;52.684;9.918;2022-07-23T00:03:08;14.60;99.90
8114;DHT22;4099;52.684;9.918;2022-07-23T00:08:10;14.40;99.90
8114;DHT22;4099;52.684;9.918;2022-07-23T00:13:13;14.20;99.90
8114;DHT22;4099;52.684;9.918;2022-07-23T00:18:15;14.10;99.90
8114;DHT22;4099;52.684;9.918;2022-07-23T00:23:17;13.90;99.90
8114;DHT22;4099;52.684;9.918;2022-07-23T00:28:20;13.90;99.90
8114;DHT22;4099;52.684;9.918;2022-07-23T00:33:22;13.90;99.90
8114;DHT22;4099;52.684;9.918;2022-07-23T00:38:24;13.80;99.90
8114;DHT22;4099;52.684;9.918;2022-07-23T00:43:27;13.80;99.90
8114;DHT22;4099;52.684;9.918;2022-07-23T00:48:29;14.00;99.90
8114;DHT22;4099;52.684;9.918;2022-07-23T00:53:30;13.90;99.90
8114;DHT22;4099;52.684;9.918;2022-07-23T00:58:35;13.90;99.90
8114;DHT22;4099;52.684;9.918;2022-07-23T01:03:37;13.80;99.90
8114;DHT22;4099;52.684;9.918;2022-07-23T01:08:39;13.50;99.90
8114;DHT22;4099;52.684;9.918;2022-07-23T01:13:43;13.30;99.90
8114;DHT22;4099;52.684;9.918;2022-07-23T01:18:45;13.10;99.90
8114;DHT22;4099;52.684;9.918;2022-07-23T01:23:48;12.90;99.90
8114;DHT22;4099;52.684;9.918;2022-07-23T01:28:50;12.80;99.90
8114;DHT22;4099;52.684;9.918;2022-07-23T01:33:52;12.70;99.90
8114;DHT22;4099;52.684;9.918;2022-07-23T01:38:55;12.80;99.90
8114;DHT22;4099;52.684;9.918;2022-07-23T01:43:57;13.20;99.90
8114;DHT22;4099;52.684;9.918;2022-07-23T01:49:00;13.30;99.90
8114;DHT22;4099;52.684;9.918;2022-07-23T01:54:21;13.20;99.90
8114;DHT22;4099;52.684;9.918;2022-07-23T01:59:24;13.10;99.90
8114;DHT22;4099;52.684;9.918;2022-07-23T02:04:27;12.80;99.90
8114;DHT22;4099;52.684;9.918;2022-07-23T02:09:31;12.70;99.90
8114;DHT22;4099;52.684;9.918;2022-07-23T02:14:33;12.50;99.90
8114;DHT22;4099;52.684;9.918;2022-07-23T02:19:37;12.80;99.90
8114;DHT22;4099;52.684;9.918;2022-07-23T02:24:40;12.80;99.90
8114;DHT22;4099;52.684;9.918;2022-07-23T02:29:42;12.60;99.90
8114;DHT22;4099;52.684;9.918;2022-07-23T02:34:43;12.60;99.90
8114;DHT22;4099;52.684;9.918;2022-07-23T02:39:47;12.70;99.90
8114;DHT22;4099;52.684;9.918;2022-07-23T02:44:49;12.70;99.90
8114;DHT22;4099;52.684;9.918;2022-07-23T02:49:51;12.50;99.90
8114;DHT22;4099;52.684;9.918;2022-07-23T02:54:55;12.50;99.90
8114;DHT22;4099;52.684;9.918;2022-07-23T02:59:57;12.50;99.90
8114;DHT22;4099;52.684;9.918;2022-07-23T03:04:58;12.60;99.90
8114;DHT22;4099;52.684;9.918;2022-07-23T03:10:03;12.60;99.90
8114;DHT22;4099;52.684;9.918;2022-07-23T03:15:06;12.70;99.90
8114;DHT22;4099;52.684;9.918;2022-07-23T03:20:08;12.80;99.90
8114;DHT22;4099;52.684;9.918;2022-07-23T03:25:14;13.10;99.90
8114;DHT22;4099;52.684;9.918;2022-07-23T03:30:15;13.10;99.90
8114;DHT22;4099;52.684;9.918;2022-07-23T03:35:17;13.20;99.90
8114;DHT22;4099;52.684;9.918;2022-07-23T03:40:33;13.20;99.90
8114;DHT22;4099;52.684;9.918;2022-07-23T03:45:34;13.20;99.90
8114;DHT22;4099;52.684;9.918;2022-07-23T03:50:36;13.30;99.90
8114;DHT22;4099;52.684;9.918;2022-07-23T03:55:40;13.30;99.90
8114;DHT22;4099;52.684;9.918;2022-07-23T04:00:42;13.60;99.90
8114;DHT22;4099;52.684;9.918;2022-07-23T04:05:44;13.80;99.90
8114;DHT22;4099;52.684;9.918;2022-07-23T04:10:49;13.80;99.90
8114;DHT22;4099;52.684;9.918;2022-07-23T04:15:51;13.40;99.90
8114;DHT22;4099;52.684;9.918;2022-07-23T04:20:53;13.50;99.90
8114;DHT22;4099;52.684;9.918;2022-07-23T04:25:57;13.50;99.90
8114;DHT22;4099;52.684;9.918;2022-07-23T04:31:00;13.40;99.90
8114;DHT22;4099;52.684;9.918;2022-07-23T04:36:04;13.60;99.90
8114;DHT22;4099;52.684;9.918;2022-07-23T04:41:07;13.90;99.90
8114;DHT22;4099;52.684;9.918;2022-07-23T04:46:08;14.00;99.90
8114;DHT22;4099;52.684;9.918;2022-07-23T04:51:18;14.20;99.90
8114;DHT22;4099;52.684;9.918;2022-07-23T04:56:21;14.00;99.90
8114;DHT22;4099;52.684;9.918;2022-07-23T05:01:23;13.70;99.90
8114;DHT22;4099;52.684;9.918;2022-07-23T05:06:25;13.70;99.90
8114;DHT22;4099;52.684;9.918;2022-07-23T05:11:28;13.80;99.90
8114;DHT22;4099;52.684;9.918;2022-07-23T05:16:30;13.70;99.90
8114;DHT22;4099;52.684;9.918;2022-07-23T05:21:37;13.60;99.90
8114;DHT22;4099;52.684;9.918;2022-07-23T05:26:41;13.60;99.90
8114;DHT22;4099;52.684;9.918;2022-07-23T05:31:43;13.70;99.90
8114;DHT22;4099;52.684;9.918;2022-07-23T05:36:46;13.80;99.90
8114;DHT22;4099;52.684;9.918;2022-07-23T05:41:50;13.80;99.90
8114;DHT22;4099;52.684;9.918;2022-07-23T05:46:52;14.00;99.90
8114;DHT22;4099;52.684;9.918;2022-07-23T05:52:03;14.70;99.90
8114;DHT22;4099;52.684;9.918;2022-07-23T05:57:24;15.20;99.90
8114;DHT22;4099;52.684;9.918;2022-07-23T06:02:26;15.00;99.90
8114;DHT22;4099;52.684;9.918;2022-07-23T06:07:28;14.70;99.90
8114;DHT22;4099;52.684;9.918;2022-07-23T06:12:31;14.60;99.90
8114;DHT22;4099;52.684;9.918;2022-07-23T06:17:33;14.80;99.90
8114;DHT22;4099;52.684;9.918;2022-07-23T06:22:35;14.90;99.90
8114;DHT22;4099;52.684;9.918;2022-07-23T06:27:38;15.20;99.90
8114;DHT22;4099;52.684;9.918;2022-07-23T06:32:40;15.40;99.90
8114;DHT22;4099;52.684;9.918;2022-07-23T06:37:42;15.90;99.90
8114;DHT22;4099;52.684;9.918;2022-07-23T06:42:45;16.30;99.90
8114;DHT22;4099;52.684;9.918;2022-07-23T06:47:52;16.80;99.90
8114;DHT22;4099;52.684;9.918;2022-07-23T06:52:53;17.00;99.90
8114;DHT22;4099;52.684;9.918;2022-07-23T06:57:57;17.20;99.90
8114;DHT22;4099;52.684;9.918;2022-07-23T07:02:58;17.30;99.90
8114;DHT22;4099;52.684;9.918;2022-07-23T07:08:00;17.50;99.90
8114;DHT22;4099;52.684;9.918;2022-07-23T07:13:03;17.60;99.90
8114;DHT22;4099;52.684;9.918;2022-07-23T07:18:05;17.70;99.90
8114;DHT22;4099;52.684;9.918;2022-07-23T07:23:07;17.90;99.90
8114;DHT22;4099;52.684;9.918;2022-07-23T07:28:11;18.20;99.90
8114;DHT22;4099;52.684;9.918;2022-07-23T07:33:12;18.20;99.90
8114;DHT22;4099;52.684;9.918;2022-07-23T07:38:14;18.70;99.90
8114;DHT22;4099;52.684;9.918;2022-07-23T07:43:17;18.70;99.90
8114;DHT22;4099;52.684;9.918;2022-07-23T07:48:19;18.90;99.90
8114;DHT22;4099;52.684;9.918;2022-07-23T07:53:21;18.80;99.90
8114;DHT22;4099;52.684;9.918;2022-07-23T07:58:24;18.60;99.90
8114;DHT22;4099;52.684;9.918;2022-07-23T08:03:26;19.10;99.90
8114;DHT22;4099;52.684;9.918;2022-07-23T08:08:28;19.40;97.70
8114;DHT22;4099;52.684;9.918;2022-07-23T08:13:31;19.00;99.90
8114;DHT22;4099;52.684;9.918;2022-07-23T08:18:33;19.00;99.90
8114;DHT22;4099;52.684;9.918;2022-07-23T08:23:35;18.70;99.90
8114;DHT22;4099;52.684;9.918;2022-07-23T08:28:38;19.50;37.60
8114;DHT22;4099;52.684;9.918;2022-07-23T08:33:40;20.00;22.40
8114;DHT22;4099;52.684;9.918;2022-07-23T08:38:41;20.10;1.00
8114;DHT22;4099;52.684;9.918;2022-07-23T08:43:45;20.00;1.00
8114;DHT22;4099;52.684;9.918;2022-07-23T08:48:48;20.40;1.00
8114;DHT22;4099;52.684;9.918;2022-07-23T08:53:50;20.50;1.00
8114;DHT22;4099;52.684;9.918;2022-07-23T08:58:54;21.20;1.00
8114;DHT22;4099;52.684;9.918;2022-07-23T09:03:56;21.60;1.00
8114;DHT22;4099;52.684;9.918;2022-07-23T09:08:58;21.10;1.00
8114;DHT22;4099;52.684;9.918;2022-07-23T09:14:36;20.80;1.00
8114;DHT22;4099;52.684;9.918;2022-07-23T09:19:39;20.10;99.90
8114;DHT22;4099;52.684;9.918;2022-07-23T09:25:02;20.40;1.00
8114;DHT22;4099;52.684;9.918;2022-07-23T09:30:07;21.60;1.00
8114;DHT22;4099;52.684;9.918;2022-07-23T09:35:09;21.40;1.00
8114;DHT22;4099;52.684;9.918;2022-07-23T09:40:12;20.70;99.90
8114;DHT22;4099;52.684;9.918;2022-07-23T09:45:18;20.30;91.50
8114;DHT22;4099;52.684;9.918;2022-07-23T09:50:20;21.40;1.00
8114;DHT22;4099;52.684;9.918;2022-07-23T09:55:31;21.90;5.70
8114;DHT22;4099;52.684;9.918;2022-07-23T10:00:37;21.40;1.00
8114;DHT22;4099;52.684;9.918;2022-07-23T10:05:40;21.00;9.30
8114;DHT22;4099;52.684;9.918;2022-07-23T10:11:06;21.30;99.90
8114;DHT22;4099;52.684;9.918;2022-07-23T10:16:28;22.00;98.80
8114;DHT22;4099;52.684;9.918;2022-07-23T10:21:36;22.50;1.00
8114;DHT22;4099;52.684;9.918;2022-07-23T10:26:45;23.30;99.90
8114;DHT22;4099;52.684;9.918;2022-07-23T10:31:56;23.50;14.10
8114;DHT22;4099;52.684;9.918;2022-07-23T10:37:07;22.90;99.90
8114;DHT22;4099;52.684;9.918;2022-07-23T10:42:10;22.40;1.00
8114;DHT22;4099;52.684;9.918;2022-07-23T10:47:21;22.20;1.00
8114;DHT22;4099;52.684;9.918;2022-07-23T10:53:10;23.00;93.30
8114;DHT22;4099;52.684;9.918;2022-07-23T10:58:22;23.80;1.00
8114;DHT22;4099;52.684;9.918;2022-07-23T11:03:33;23.40;1.00
8114;DHT22;4099;52.684;9.918;2022-07-23T11:08:39;23.00;1.00
8114;DHT22;4099;52.684;9.918;2022-07-23T11:13:45;22.50;1.00
8114;DHT22;4099;52.684;9.918;2022-07-23T11:24:18;22.20;1.00
8114;DHT22;4099;52.684;9.918;2022-07-23T11:29:43;22.10;99.90
8114;DHT22;4099;52.684;9.918;2022-07-23T11:34:46;23.20;99.90
8114;DHT22;4099;52.684;9.918;2022-07-23T11:39:53;23.70;1.00
8114;DHT22;4099;52.684;9.918;2022-07-23T11:44:56;23.20;1.00
8114;DHT22;4099;52.684;9.918;2022-07-23T11:50:00;23.40;1.00
8114;DHT22;4099;52.684;9.918;2022-07-23T11:55:06;24.60;1.00
8114;DHT22;4099;52.684;9.918;2022-07-23T12:00:10;25.60;1.00
8114;DHT22;4099;52.684;9.918;2022-07-23T12:05:14;26.50;99.90
8114;DHT22;4099;52.684;9.918;2022-07-23T12:10:18;26.00;1.00
8114;DHT22;4099;52.684;9.918;2022-07-23T12:15:22;24.70;1.00
8114;DHT22;4099;52.684;9.918;2022-07-23T12:20:25;24.00;1.00
8114;DHT22;4099;52.684;9.918;2022-07-23T12:25:31;23.40;99.90
8114;DHT22;4099;52.684;9.918;2022-07-23T12:30:38;24.30;1.00
8114;DHT22;4099;52.684;9.918;2022-07-23T12:35:42;24.70;1.00
8114;DHT22;4099;52.684;9.918;2022-07-23T12:40:47;25.20;99.60
8114;DHT22;4099;52.684;9.918;2022-07-23T12:45:50;25.50;99.90
8114;DHT22;4099;52.684;9.918;2022-07-23T12:50:55;24.00;1.00
8114;DHT22;4099;52.684;9.918;2022-07-23T12:56:03;23.60;1.00
8114;DHT22;4099;52.684;9.918;2022-07-23T13:01:05;25.20;1.00
8114;DHT22;4099;52.684;9.918;2022-07-23T13:06:09;25.90;99.90
8114;DHT22;4099;52.684;9.918;2022-07-23T13:11:13;25.80;99.90
8114;DHT22;4099;52.684;9.918;2022-07-23T13:16:14;25.60;99.90
8114;DHT22;4099;52.684;9.918;2022-07-23T13:21:16;27.40;1.00
8114;DHT22;4099;52.684;9.918;2022-07-23T13:26:19;28.20;99.90
8114;DHT22;4099;52.684;9.918;2022-07-23T13:31:21;28.00;1.00
8114;DHT22;4099;52.684;9.918;2022-07-23T13:36:24;28.50;1.00
8114;DHT22;4099;52.684;9.918;2022-07-23T13:41:27;30.00;1.00
8114;DHT22;4099;52.684;9.918;2022-07-23T13:46:29;30.30;1.00
8114;DHT22;4099;52.684;9.918;2022-07-23T13:51:31;29.90;1.00
8114;DHT22;4099;52.684;9.918;2022-07-23T13:56:34;30.20;1.00
8114;DHT22;4099;52.684;9.918;2022-07-23T14:01:36;30.10;1.00
8114;DHT22;4099;52.684;9.918;2022-07-23T14:06:38;29.20;1.00
8114;DHT22;4099;52.684;9.918;2022-07-23T14:11:41;28.50;1.00
8114;DHT22;4099;52.684;9.918;2022-07-23T14:16:44;28.60;1.00
8114;DHT22;4099;52.684;9.918;2022-07-23T14:21:45;28.30;1.00
8114;DHT22;4099;52.684;9.918;2022-07-23T14:26:50;29.00;1.00
8114;DHT22;4099;52.684;9.918;2022-07-23T14:31:52;29.80;1.00
8114;DHT22;4099;52.684;9.918;2022-07-23T14:36:54;30.90;1.00
8114;DHT22;4099;52.684;9.918;2022-07-23T14:41:58;31.80;1.00
8114;DHT22;4099;52.684;9.918;2022-07-23T14:47:00;32.60;1.00
8114;DHT22;4099;52.684;9.918;2022-07-23T14:52:04;33.10;1.00
8114;DHT22;4099;52.684;9.918;2022-07-23T14:57:08;33.30;1.00
8114;DHT22;4099;52.684;9.918;2022-07-23T15:02:10;32.60;1.00
8114;DHT22;4099;52.684;9.918;2022-07-23T15:07:12;30.00;1.00
8114;DHT22;4099;52.684;9.918;2022-07-23T15:12:15;27.80;1.00
8114;DHT22;4099;52.684;9.918;2022-07-23T15:17:17;26.90;1.00
8114;DHT22;4099;52.684;9.918;2022-07-23T15:22:20;26.00;1.00
8114;DHT22;4099;52.684;9.918;2022-07-23T15:27:24;25.20;1.00
8114;DHT22;4099;52.684;9.918;2022-07-23T15:32:26;24.80;1.00
8114;DHT22;4099;52.684;9.918;2022-07-23T15:37:29;24.40;1.00
8114;DHT22;4099;52.684;9.918;2022-07-23T15:42:33;24.50;1.00
8114;DHT22;4099;52.684;9.918;2022-07-23T15:47:35;24.10;1.00
8114;DHT22;4099;52.684;9.918;2022-07-23T15:52:38;24.20;1.00
8114;DHT22;4099;52.684;9.918;2022-07-23T15:57:42;24.00;1.00
8114;DHT22;4099;52.684;9.918;2022-07-23T16:02:44;24.10;1.00
8114;DHT22;4099;52.684;9.918;2022-07-23T16:07:47;24.00;1.00
8114;DHT22;4099;52.684;9.918;2022-07-23T16:12:51;23.90;1.00
8114;DHT22;4099;52.684;9.918;2022-07-23T16:17:54;23.70;1.00
8114;DHT22;4099;52.684;9.918;2022-07-23T16:22:56;23.80;1.00
8114;DHT22;4099;52.684;9.918;2022-07-23T16:28:01;24.10;1.00
8114;DHT22;4099;52.684;9.918;2022-07-23T16:33:03;25.10;1.00
8114;DHT22;4099;52.684;9.918;2022-07-23T16:38:06;26.40;1.00
8114;DHT22;4099;52.684;9.918;2022-07-23T16:43:10;29.50;1.00
8114;DHT22;4099;52.684;9.918;2022-07-23T16:48:12;32.00;1.00
8114;DHT22;4099;52.684;9.918;2022-07-23T16:53:15;33.50;1.00
8114;DHT22;4099;52.684;9.918;2022-07-23T16:58:19;33.70;1.00
8114;DHT22;4099;52.684;9.918;2022-07-23T17:03:22;34.00;1.00
8114;DHT22;4099;52.684;9.918;2022-07-23T17:08:26;33.30;1.00
8114;DHT22;4099;52.684;9.918;2022-07-23T17:13:31;33.80;1.00
8114;DHT22;4099;52.684;9.918;2022-07-23T17:18:33;34.10;1.00
8114;DHT22;4099;52.684;9.918;2022-07-23T17:23:35;33.60;1.00
8114;DHT22;4099;52.684;9.918;2022-07-23T17:28:39;33.70;1.00
8114;DHT22;4099;52.684;9.918;2022-07-23T17:33:42;34.10;1.00
8114;DHT22;4099;52.684;9.918;2022-07-23T17:38:44;34.00;1.00
8114;DHT22;4099;52.684;9.918;2022-07-23T17:43:48;34.00;1.00
8114;DHT22;4099;52.684;9.918;2022-07-23T17:48:50;33.30;1.00
8114;DHT22;4099;52.684;9.918;2022-07-23T17:53:53;30.70;1.00
8114;DHT22;4099;52.684;9.918;2022-07-23T17:58:57;27.40;1.00
8114;DHT22;4099;52.684;9.918;2022-07-23T18:04:00;25.10;1.00
8114;DHT22;4099;52.684;9.918;2022-07-23T18:09:03;23.50;1.00
8114;DHT22;4099;52.684;9.918;2022-07-23T18:14:08;22.60;1.00
8114;DHT22;4099;52.684;9.918;2022-07-23T18:19:10;22.10;1.00
8114;DHT22;4099;52.684;9.918;2022-07-23T18:24:13;21.70;1.00
8114;DHT22;4099;52.684;9.918;2022-07-23T18:29:17;21.30;99.90
8114;DHT22;4099;52.684;9.918;2022-07-23T18:34:20;21.00;99.90
8114;DHT22;4099;52.684;9.918;2022-07-23T18:39:22;20.60;1.00
8114;DHT22;4099;52.684;9.918;2022-07-23T18:44:26;20.40;1.00
8114;DHT22;4099;52.684;9.918;2022-07-23T18:49:29;20.30;1.00
8114;DHT22;4099;52.684;9.918;2022-07-23T18:54:31;19.90;99.90
8114;DHT22;4099;52.684;9.918;2022-07-23T18:59:35;19.60;99.90
8114;DHT22;4099;52.684;9.918;2022-07-23T19:04:37;19.50;1.00
8114;DHT22;4099;52.684;9.918;2022-07-23T19:09:39;19.10;1.00
8114;DHT22;4099;52.684;9.918;2022-07-23T19:14:43;18.90;1.00
8114;DHT22;4099;52.684;9.918;2022-07-23T19:19:46;18.60;99.90
8114;DHT22;4099;52.684;9.918;2022-07-23T19:24:48;18.20;1.00
8114;DHT22;4099;52.684;9.918;2022-07-23T19:29:52;17.80;1.00
8114;DHT22;4099;52.684;9.918;2022-07-23T19:34:54;17.50;1.00
8114;DHT22;4099;52.684;9.918;2022-07-23T19:39:56;17.20;1.00
8114;DHT22;4099;52.684;9.918;2022-07-23T19:45:01;17.00;1.00
8114;DHT22;4099;52.684;9.918;2022-07-23T19:50:04;16.90;1.00
8114;DHT22;4099;52.684;9.918;2022-07-23T19:55:09;16.70;1.00
8114;DHT22;4099;52.684;9.918;2022-07-23T20:00:13;16.60;1.00
8114;DHT22;4099;52.684;9.918;2022-07-23T20:05:16;16.40;1.00
8114;DHT22;4099;52.684;9.918;2022-07-23T20:10:18;16.20;1.00
8114;DHT22;4099;52.684;9.918;2022-07-23T20:15:23;16.10;1.00
8114;DHT22;4099;52.684;9.918;2022-07-23T20:20:26;16.20;1.00
8114;DHT22;4099;52.684;9.918;2022-07-23T20:25:28;16.10;1.00
8114;DHT22;4099;52.684;9.918;2022-07-23T20:30:32;16.00;1.00
8114;DHT22;4099;52.684;9.918;2022-07-23T20:35:34;16.00;1.00
8114;DHT22;4099;52.684;9.918;2022-07-23T20:40:37;15.90;1.00
8114;DHT22;4099;52.684;9.918;2022-07-23T20:45:43;15.80;1.00
8114;DHT22;4099;52.684;9.918;2022-07-23T20:50:45;15.50;1.00
8114;DHT22;4099;52.684;9.918;2022-07-23T20:55:49;15.30;39.40
8114;DHT22;4099;52.684;9.918;2022-07-23T21:00:53;15.80;1.00
8114;DHT22;4099;52.684;9.918;2022-07-23T21:05:56;16.00;1.00
8114;DHT22;4099;52.684;9.918;2022-07-23T21:10:59;15.70;1.00
8114;DHT22;4099;52.684;9.918;2022-07-23T21:16:03;15.40;20.20
8114;DHT22;4099;52.684;9.918;2022-07-23T21:21:05;15.10;73.30
8114;DHT22;4099;52.684;9.918;2022-07-23T21:26:12;15.00;99.90
8114;DHT22;4099;52.684;9.918;2022-07-23T21:31:16;14.80;99.90
8114;DHT22;4099;52.684;9.918;2022-07-23T21:36:19;14.60;99.90
8114;DHT22;4099;52.684;9.918;2022-07-23T21:41:21;14.30;99.90
8114;DHT22;4099;52.684;9.918;2022-07-23T21:46:31;14.30;99.90
8114;DHT22;4099;52.684;9.918;2022-07-23T21:51:34;14.50;99.90
8114;DHT22;4099;52.684;9.918;2022-07-23T21:56:37;14.60;99.90
8114;DHT22;4099;52.684;9.918;2022-07-23T22:01:42;14.60;99.90
8114;DHT22;4099;52.684;9.918;2022-07-23T22:06:44;14.50;99.90
8114;DHT22;4099;52.684;9.918;2022-07-23T22:11:46;14.00;99.90
8114;DHT22;4099;52.684;9.918;2022-07-23T22:16:50;13.70;99.90
8114;DHT22;4099;52.684;9.918;2022-07-23T22:21:52;13.50;99.90
8114;DHT22;4099;52.684;9.918;2022-07-23T22:26:55;13.20;99.90
8114;DHT22;4099;52.684;9.918;2022-07-23T22:31:59;13.10;99.90
8114;DHT22;4099;52.684;9.918;2022-07-23T22:37:01;13.30;99.90
8114;DHT22;4099;52.684;9.918;2022-07-23T22:42:04;13.60;99.90
8114;DHT22;4099;52.684;9.918;2022-07-23T22:47:08;13.80;99.90
8114;DHT22;4099;52.684;9.918;2022-07-23T22:52:10;13.80;99.90
8114;DHT22;4099;52.684;9.918;2022-07-23T22:57:12;14.00;99.90
8114;DHT22;4099;52.684;9.918;2022-07-23T23:02:16;14.00;99.90
8114;DHT22;4099;52.684;9.918;2022-07-23T23:07:19;13.90;99.90
8114;DHT22;4099;52.684;9.918;2022-07-23T23:12:21;13.70;99.90
8114;DHT22;4099;52.684;9.918;2022-07-23T23:17:25;13.40;99.90
8114;DHT22;4099;52.684;9.918;2022-07-23T23:22:27;13.20;99.90
8114;DHT22;4099;52.684;9.918;2022-07-23T23:27:29;13.20;99.90
8114;DHT22;4099;52.684;9.918;2022-07-23T23:32:33;13.00;99.90
8114;DHT22;4099;52.684;9.918;2022-07-23T23:37:35;13.10;99.90
8114;DHT22;4099;52.684;9.918;2022-07-23T23:42:37;13.00;99.90
8114;DHT22;4099;52.684;9.918;2022-07-23T23:47:40;13.20;99.90
8114;DHT22;4099;52.684;9.918;2022-07-23T23:52:41;13.50;99.90
8114;DHT22;4099;52.684;9.918;2022-07-23T23:57:43;13.40;99.90
